Time;durP1;ratioP1;P1;durP2;ratioP2;P2;SDS_P1;SDS_P2;PMS_P1;PMS_P2;Temp;Humidity;BMP_temperature;BMP_pressure;BME280_temperature;BME280_humidity;BME280_pressure;Samples;Min_cycle;Max_cycle;Signal;HPM_P1;HPM_P2
2024/01/07 00:00:07;;;;;;;11.15;8.95;;;3.30;65.10;;;;;;5013590;28;20484;-75
2024/01/07 00:02:33;;;;;;;11.23;8.77;;;3.30;65.10;;;;;;5015393;28;20382;-72
2024/01/07 00:05:01;;;;;;;11.40;9.43;;;3.30;65.10;;;;;;5014268;28;20385;-72
2024/01/07 00:07:27;;;;;;;11.93;10.05;;;3.40;65.30;;;;;;5018142;28;20113;-80
2024/01/07 00:09:53;;;;;;;12.48;9.63;;;3.40;65.30;;;;;;5017489;28;20045;-78
2024/01/07 00:12:19;;;;;;;11.63;9.57;;;3.40;65.30;;;;;;5007287;28;20123;-77
2024/01/07 00:14:45;;;;;;;12.70;10.13;;;3.40;65.30;;;;;;5014718;28;20034;-73
2024/01/07 00:17:11;;;;;;;15.15;10.77;;;3.40;65.30;;;;;;5015759;28;20498;-76
2024/01/07 00:19:38;;;;;;;16.00;11.05;;;3.40;65.30;;;;;;5016900;28;20025;-74
2024/01/07 00:22:04;;;;;;;12.68;10.80;;;3.40;65.40;;;;;;5018583;28;20159;-74
2024/01/07 00:24:30;;;;;;;13.32;10.55;;;3.40;65.40;;;;;;5013860;28;20054;-73
2024/01/07 00:26:56;;;;;;;11.23;9.90;;;3.40;65.50;;;;;;5015967;28;20032;-74
2024/01/07 00:29:22;;;;;;;13.32;9.80;;;3.30;65.30;;;;;;5017326;28;20038;-74
2024/01/07 00:31:48;;;;;;;10.00;8.77;;;3.30;65.30;;;;;;5001214;28;20021;-77
2024/01/07 00:34:14;;;;;;;8.82;7.35;;;3.30;65.30;;;;;;5015685;28;20249;-76
2024/01/07 00:36:40;;;;;;;8.80;7.90;;;3.30;65.30;;;;;;5017874;28;20284;-77
2024/01/07 00:39:06;;;;;;;10.43;8.75;;;3.30;65.30;;;;;;5013384;28;20285;-78
2024/01/07 00:41:32;;;;;;;10.23;7.57;;;3.30;65.40;;;;;;5012252;28;20401;-80
2024/01/07 00:43:58;;;;;;;9.60;7.35;;;3.20;65.20;;;;;;5010376;28;20124;-75
2024/01/07 00:46:25;;;;;;;7.93;6.15;;;3.20;65.20;;;;;;5011979;28;20508;-82
2024/01/07 00:48:53;;;;;;;7.53;6.72;;;3.20;65.20;;;;;;5016906;28;20087;-81
2024/01/07 00:51:19;;;;;;;7.05;6.30;;;3.20;65.20;;;;;;5017201;28;20041;-83
2024/01/07 00:53:45;;;;;;;7.10;6.25;;;3.20;65.20;;;;;;5017562;28;20030;-85
2024/01/07 00:56:10;;;;;;;8.20;6.13;;;3.20;65.20;;;;;;5013880;28;20359;-83
2024/01/07 00:58:37;;;;;;;9.43;6.75;;;3.10;65.00;;;;;;5013261;28;20101;-77
2024/01/07 01:01:03;;;;;;;8.57;6.55;;;3.10;65.00;;;;;;5013136;28;20923;-83
2024/01/07 01:03:29;;;;;;;9.30;6.25;;;3.10;65.00;;;;;;5014628;28;20113;-84
2024/01/07 01:05:56;;;;;;;11.65;6.68;;;3.10;65.00;;;;;;5020916;28;20037;-84
2024/01/07 01:08:26;;;;;;;9.70;6.70;;;3.10;65.00;;;;;;5015316;28;20194;-83
2024/01/07 01:10:53;;;;;;;8.38;6.07;;;3.00;64.80;;;;;;5008198;28;20030;-85
2024/01/07 01:13:22;;;;;;;8.73;7.28;;;3.00;64.80;;;;;;5011944;28;20036;-80
2024/01/07 01:15:48;;;;;;;8.02;6.53;;;3.00;64.80;;;;;;5008006;28;20037;-76
2024/01/07 01:18:14;;;;;;;10.27;7.18;;;3.00;64.90;;;;;;5008061;28;20044;-89
2024/01/07 01:20:40;;;;;;;7.97;7.18;;;3.00;64.80;;;;;;5034453;28;20029;-82
2024/01/07 01:23:06;;;;;;;8.18;7.18;;;2.90;64.70;;;;;;5018724;28;20508;-85
2024/01/07 01:25:35;;;;;;;10.20;7.30;;;2.90;64.70;;;;;;5015825;28;20436;-82
2024/01/07 01:28:01;;;;;;;12.45;8.25;;;2.90;64.70;;;;;;5015260;28;20044;-85
2024/01/07 01:30:30;;;;;;;7.68;6.88;;;2.90;64.70;;;;;;5019223;28;20683;-92
2024/01/07 01:32:57;;;;;;;10.40;8.48;;;2.90;64.70;;;;;;5014308;28;20429;-84
2024/01/07 01:35:24;;;;;;;14.05;8.02;;;2.90;64.70;;;;;;5019373;28;20029;-92
2024/01/07 01:37:51;;;;;;;10.40;8.00;;;2.80;64.50;;;;;;5014532;28;20113;-77
2024/01/07 01:40:17;;;;;;;11.50;8.93;;;2.80;64.50;;;;;;5018592;28;20299;-84
2024/01/07 01:42:44;;;;;;;11.85;8.10;;;2.80;64.50;;;;;;5020534;28;20028;-82
2024/01/07 01:45:10;;;;;;;9.95;8.50;;;2.80;64.60;;;;;;5014307;28;20045;-84
2024/01/07 01:47:36;;;;;;;13.10;8.55;;;2.80;64.50;;;;;;5018063;28;20065;-82
2024/01/07 01:50:03;;;;;;;9.02;7.38;;;2.70;64.40;;;;;;5016937;28;20060;-78
2024/01/07 01:52:28;;;;;;;13.98;8.75;;;2.70;64.40;;;;;;5011157;28;20037;-74
2024/01/07 01:54:55;;;;;;;11.68;8.45;;;2.80;64.60;;;;;;5015229;28;20035;-81
2024/01/07 01:57:24;;;;;;;11.35;8.00;;;2.70;64.40;;;;;;5016225;28;20251;-77
2024/01/07 01:59:50;;;;;;;14.30;9.35;;;2.70;64.30;;;;;;5017225;28;20508;-78
2024/01/07 02:02:17;;;;;;;12.35;9.32;;;2.70;64.30;;;;;;5010422;28;20042;-76
2024/01/07 02:04:43;;;;;;;11.13;7.55;;;2.70;64.30;;;;;;5012246;28;20317;-75
2024/01/07 02:07:09;;;;;;;12.50;9.25;;;2.60;64.20;;;;;;5011264;28;20048;-78
2024/01/07 02:09:35;;;;;;;12.50;8.60;;;2.70;64.30;;;;;;5012950;28;20025;-78
2024/01/07 02:12:03;;;;;;;11.73;8.93;;;2.60;64.20;;;;;;5015238;28;20025;-78
2024/01/07 02:14:30;;;;;;;10.85;8.48;;;2.60;64.20;;;;;;5011190;28;20189;-84
2024/01/07 02:16:56;;;;;;;10.40;8.98;;;2.60;64.20;;;;;;4992490;28;20120;-80
2024/01/07 02:19:23;;;;;;;11.00;9.02;;;2.60;64.20;;;;;;5018525;28;20026;-79
2024/01/07 02:21:52;;;;;;;11.45;8.40;;;2.60;64.20;;;;;;5025811;28;20598;-84
2024/01/07 02:24:19;;;;;;;12.18;9.18;;;2.60;64.20;;;;;;5033571;28;20041;-87
2024/01/07 02:26:47;;;;;;;12.48;8.60;;;2.50;64.10;;;;;;5026118;28;20092;-85
2024/01/07 02:29:14;;;;;;;10.45;8.45;;;2.50;64.10;;;;;;5024996;28;20136;-80
2024/01/07 02:31:40;;;;;;;11.65;8.77;;;2.50;64.10;;;;;;5012245;28;20456;-80
2024/01/07 02:34:06;;;;;;;10.77;8.77;;;2.50;64.10;;;;;;5013314;28;20292;-78
2024/01/07 02:36:33;;;;;;;10.60;8.65;;;2.50;64.60;;;;;;5013358;28;20036;-77
2024/01/07 02:39:00;;;;;;;11.57;8.20;;;2.50;64.10;;;;;;5011118;28;20171;-79
2024/01/07 02:41:30;;;;;;;12.43;9.27;;;2.50;64.20;;;;;;4999274;28;20129;-81
2024/01/07 02:43:57;;;;;;;10.30;8.82;;;2.50;64.10;;;;;;5008812;28;20044;-77
2024/01/07 02:46:24;;;;;;;11.43;8.65;;;2.50;64.20;;;;;;5007193;28;20099;-78
2024/01/07 02:48:50;;;;;;;9.65;8.25;;;2.50;64.20;;;;;;5019054;28;20051;-75
2024/01/07 02:51:17;;;;;;;10.07;7.75;;;2.50;64.20;;;;;;5013687;28;20105;-78
2024/01/07 02:53:43;;;;;;;11.95;8.52;;;2.50;64.20;;;;;;5020858;28;20129;-85
2024/01/07 02:56:10;;;;;;;11.27;7.15;;;2.50;64.20;;;;;;5020592;28;20037;-93
2024/01/07 02:58:43;;;;;;;11.93;8.05;;;2.50;64.20;;;;;;5014833;28;20030;-85
2024/01/07 03:01:10;;;;;;;9.48;7.05;;;2.50;64.30;;;;;;5019254;28;20441;-81
2024/01/07 03:03:36;;;;;;;9.65;8.32;;;2.50;64.20;;;;;;5013115;28;20045;-79
2024/01/07 03:06:02;;;;;;;10.57;8.43;;;2.60;64.40;;;;;;5038968;28;20114;-75
2024/01/07 03:08:28;;;;;;;12.93;7.97;;;2.60;64.40;;;;;;5034964;28;20014;-78
2024/01/07 03:10:54;;;;;;;11.80;8.43;;;2.60;64.40;;;;;;5038466;28;20013;-81
2024/01/07 03:13:20;;;;;;;10.32;8.13;;;2.60;64.40;;;;;;5039217;28;20013;-78
2024/01/07 03:15:46;;;;;;;9.63;8.30;;;2.60;64.40;;;;;;5015989;28;20101;-80
2024/01/07 03:18:12;;;;;;;11.40;8.07;;;2.70;64.60;;;;;;5008589;28;20476;-80
2024/01/07 03:20:38;;;;;;;9.10;8.18;;;2.70;64.60;;;;;;5018283;28;20034;-80
2024/01/07 03:23:05;;;;;;;9.50;8.10;;;2.70;64.60;;;;;;5008614;28;20113;-79
2024/01/07 03:25:31;;;;;;;9.63;7.80;;;2.70;64.70;;;;;;5020018;28;20188;-81
2024/01/07 03:27:57;;;;;;;9.25;8.18;;;2.70;64.60;;;;;;5019681;28;20561;-77
2024/01/07 03:30:22;;;;;;;9.40;7.15;;;2.80;64.80;;;;;;5019620;28;20422;-77
2024/01/07 03:32:49;;;;;;;9.57;7.78;;;2.80;64.80;;;;;;5019118;28;20515;-78
2024/01/07 03:35:15;;;;;;;10.02;7.97;;;2.80;64.80;;;;;;5014249;28;20447;-78
2024/01/07 03:37:42;;;;;;;11.15;8.82;;;2.90;65.00;;;;;;5018120;28;20132;-74
2024/01/07 03:40:14;;;;;;;9.45;7.57;;;2.90;65.00;;;;;;5017845;28;20042;-73
2024/01/07 03:42:40;;;;;;;9.80;8.68;;;2.90;65.00;;;;;;5020667;28;20028;-78
2024/01/07 03:45:07;;;;;;;9.77;7.80;;;2.90;65.00;;;;;;5013738;28;20136;-76
2024/01/07 03:47:33;;;;;;;8.80;7.90;;;2.90;65.00;;;;;;5019156;28;20139;-79
2024/01/07 03:49:58;;;;;;;7.75;7.05;;;2.90;65.10;;;;;;5012146;28;20026;-80
2024/01/07 03:52:24;;;;;;;9.15;7.70;;;2.90;65.10;;;;;;5017947;28;20143;-81
2024/01/07 03:54:51;;;;;;;11.50;8.13;;;2.90;65.10;;;;;;5014864;28;20509;-83
2024/01/07 03:57:17;;;;;;;9.90;7.95;;;3.00;65.30;;;;;;5017232;28;20034;-80
2024/01/07 03:59:43;;;;;;;10.23;8.13;;;3.00;65.30;;;;;;5015651;28;20037;-80
2024/01/07 04:02:11;;;;;;;9.82;7.28;;;3.00;65.50;;;;;;5021093;28;20120;-78
2024/01/07 04:04:38;;;;;;;8.77;7.45;;;3.00;65.30;;;;;;5017861;28;20901;-82
2024/01/07 04:07:04;;;;;;;8.30;7.50;;;3.00;65.40;;;;;;5018812;28;20433;-85
2024/01/07 04:09:30;;;;;;;10.88;8.02;;;3.10;65.50;;;;;;5014096;28;20025;-71
2024/01/07 04:11:56;;;;;;;9.10;8.18;;;3.10;65.60;;;;;;5011671;28;20738;-83
2024/01/07 04:14:22;;;;;;;11.05;7.85;;;3.10;65.60;;;;;;5014129;28;20092;-74
2024/01/07 04:16:48;;;;;;;13.63;8.90;;;3.10;65.60;;;;;;5019936;28;20037;-81
2024/01/07 04:19:14;;;;;;;12.10;8.68;;;3.10;65.60;;;;;;5016016;28;20030;-77
2024/01/07 04:21:45;;;;;;;9.70;8.35;;;3.10;65.60;;;;;;5018639;28;20382;-76
2024/01/07 04:24:11;;;;;;;9.02;8.18;;;3.10;65.60;;;;;;5016014;28;20580;-75
2024/01/07 04:26:37;;;;;;;9.02;7.93;;;3.20;65.80;;;;;;5017608;28;20039;-72
2024/01/07 04:29:03;;;;;;;10.75;8.63;;;3.20;65.80;;;;;;5009099;28;20344;-73
2024/01/07 04:31:29;;;;;;;9.70;8.27;;;3.20;65.80;;;;;;5012145;28;20030;-72
2024/01/07 04:33:55;;;;;;;12.02;8.75;;;3.20;65.80;;;;;;5017457;28;20032;-78
2024/01/07 04:36:24;;;;;;;12.85;9.18;;;3.20;65.80;;;;;;5016555;28;20561;-78
2024/01/07 04:38:50;;;;;;;9.68;8.48;;;3.30;66.00;;;;;;5034961;28;20110;-73
2024/01/07 04:41:16;;;;;;;9.88;8.95;;;3.30;66.00;;;;;;5016089;28;20526;-82
2024/01/07 04:43:43;;;;;;;11.25;9.00;;;3.30;66.00;;;;;;5019596;28;20044;-83
2024/01/07 04:46:11;;;;;;;9.65;8.55;;;3.30;66.10;;;;;;5016419;28;20766;-79
2024/01/07 04:48:37;;;;;;;11.20;9.50;;;3.30;66.60;;;;;;5017980;28;20493;-73
2024/01/07 04:51:03;;;;;;;9.88;8.82;;;3.30;66.10;;;;;;5014535;28;20025;-83
2024/01/07 04:53:29;;;;;;;11.20;9.25;;;3.30;66.10;;;;;;5013484;28;20584;-86
2024/01/07 04:55:55;;;;;;;12.75;8.80;;;3.40;66.40;;;;;;5018381;28;20423;-83
2024/01/07 04:58:21;;;;;;;11.73;9.20;;;3.40;66.30;;;;;;5014761;28;20481;-85
2024/01/07 05:00:48;;;;;;;10.73;9.32;;;3.40;66.40;;;;;;5016347;28;20053;-82
2024/01/07 05:03:14;;;;;;;10.60;9.25;;;3.40;66.40;;;;;;5015975;28;20584;-78
2024/01/07 05:05:40;;;;;;;10.60;9.50;;;3.40;66.40;;;;;;5018587;28;20042;-82
2024/01/07 05:08:06;;;;;;;14.60;10.63;;;3.50;66.60;;;;;;5014905;28;20088;-76
2024/01/07 05:10:32;;;;;;;15.88;10.98;;;3.50;66.60;;;;;;5011914;28;20041;-75
2024/01/07 05:13:04;;;;;;;11.80;10.02;;;3.50;66.60;;;;;;5014977;28;20560;-81
2024/01/07 05:15:31;;;;;;;13.20;10.32;;;3.50;66.60;;;;;;5016016;28;20036;-77
2024/01/07 05:17:57;;;;;;;13.68;9.65;;;3.50;66.60;;;;;;5014998;28;20025;-74
2024/01/07 05:20:23;;;;;;;14.48;10.68;;;3.60;66.80;;;;;;5023425;28;20385;-86
2024/01/07 05:22:49;;;;;;;13.77;10.57;;;3.60;66.80;;;;;;5005717;28;20032;-84
2024/01/07 05:25:15;;;;;;;11.40;10.23;;;3.60;66.80;;;;;;5019450;28;20454;-85
2024/01/07 05:27:41;;;;;;;10.32;9.23;;;3.60;66.90;;;;;;5018923;28;20045;-91
2024/01/07 05:30:08;;;;;;;14.48;10.98;;;3.70;67.10;;;;;;5014581;28;20585;-85
2024/01/07 05:32:34;;;;;;;13.48;10.20;;;3.70;67.10;;;;;;5017795;28;20026;-91
2024/01/07 05:35:00;;;;;;;15.75;10.43;;;3.70;67.10;;;;;;5016229;28;20030;-88
2024/01/07 05:37:26;;;;;;;11.88;10.68;;;3.70;67.10;;;;;;5021359;28;20140;-82
2024/01/07 05:39:52;;;;;;;13.15;10.65;;;3.70;67.10;;;;;;5015403;28;20125;-88
2024/01/07 05:42:18;;;;;;;12.70;9.57;;;3.70;67.10;;;;;;5018897;28;20064;-85
2024/01/07 05:44:44;;;;;;;13.10;11.07;;;3.70;67.20;;;;;;5012701;28;20060;-85
2024/01/07 05:47:11;;;;;;;13.63;11.60;;;3.70;67.20;;;;;;5011595;28;20077;-79
2024/01/07 05:49:37;;;;;;;12.45;10.15;;;3.70;67.20;;;;;;5013688;28;20084;-88
2024/01/07 05:52:04;;;;;;;14.43;11.27;;;3.70;67.30;;;;;;5030056;28;20498;-90
2024/01/07 05:54:30;;;;;;;11.85;10.60;;;3.70;67.20;;;;;;5014336;28;20494;-84
2024/01/07 05:56:56;;;;;;;15.68;11.70;;;3.70;67.30;;;;;;5011447;28;20038;-83
2024/01/07 05:59:23;;;;;;;16.30;12.07;;;3.70;67.30;;;;;;5007607;28;20107;-80
2024/01/07 06:01:49;;;;;;;13.40;11.52;;;3.80;67.50;;;;;;5011079;28;20038;-77
2024/01/07 06:04:14;;;;;;;14.02;11.75;;;3.80;67.50;;;;;;5010765;28;20033;-75
2024/01/07 06:06:40;;;;;;;13.30;11.77;;;3.80;67.50;;;;;;5011680;28;20056;-78
2024/01/07 06:09:07;;;;;;;16.83;11.85;;;3.80;67.50;;;;;;5011947;28;20043;-82
2024/01/07 06:11:33;;;;;;;15.90;12.95;;;3.80;67.50;;;;;;5014158;28;20417;-80
2024/01/07 06:13:59;;;;;;;17.27;12.23;;;3.80;67.50;;;;;;5017807;28;20025;-80
2024/01/07 06:16:25;;;;;;;14.35;11.43;;;3.90;67.70;;;;;;4995988;28;20036;-77
2024/01/07 06:18:51;;;;;;;16.10;11.70;;;3.90;67.70;;;;;;5008686;28;20030;-76
2024/01/07 06:21:17;;;;;;;18.80;13.48;;;3.90;67.80;;;;;;5029797;28;20136;-76
2024/01/07 06:23:43;;;;;;;15.40;12.63;;;3.90;67.80;;;;;;5009199;28;20425;-74
2024/01/07 06:26:09;;;;;;;16.55;12.43;;;3.90;67.80;;;;;;5013896;28;20584;-79
2024/01/07 06:28:35;;;;;;;15.65;12.27;;;3.90;67.80;;;;;;5010694;28;20366;-77
2024/01/07 06:31:04;;;;;;;13.85;11.80;;;3.90;67.80;;;;;;5010503;28;20029;-76
2024/01/07 06:33:29;;;;;;;17.85;13.02;;;3.90;67.80;;;;;;5012082;28;20041;-77
2024/01/07 06:35:55;;;;;;;14.15;11.93;;;3.90;67.80;;;;;;5016903;28;20468;-74
2024/01/07 06:38:23;;;;;;;19.20;12.65;;;3.90;67.80;;;;;;5013492;28;20037;-74
2024/01/07 06:40:49;;;;;;;15.75;12.73;;;4.00;68.10;;;;;;5014149;28;20035;-73
2024/01/07 06:43:15;;;;;;;17.98;12.48;;;4.00;68.10;;;;;;5014626;28;20033;-78
2024/01/07 06:45:43;;;;;;;15.32;12.68;;;4.00;68.10;;;;;;5011673;28;20042;-82
2024/01/07 06:48:09;;;;;;;16.17;12.85;;;4.00;68.10;;;;;;5013629;28;20053;-88
2024/01/07 06:50:35;;;;;;;16.15;13.05;;;4.00;68.60;;;;;;5014108;28;20120;-80
2024/01/07 06:53:01;;;;;;;16.33;12.55;;;4.00;68.10;;;;;;5009785;28;20100;-74
2024/01/07 06:55:27;;;;;;;16.08;12.65;;;4.00;68.10;;;;;;5009263;28;20094;-74
2024/01/07 06:57:54;;;;;;;18.15;13.00;;;4.10;68.30;;;;;;5012473;28;20398;-74
2024/01/07 07:00:20;;;;;;;16.15;12.48;;;4.10;68.40;;;;;;5012847;28;20033;-80
2024/01/07 07:02:46;;;;;;;17.15;12.85;;;4.10;68.40;;;;;;5009993;28;20067;-81
2024/01/07 07:05:12;;;;;;;17.85;14.27;;;4.10;68.40;;;;;;5030122;28;20049;-80
2024/01/07 07:07:38;;;;;;;16.48;13.48;;;4.10;68.40;;;;;;5013617;28;20100;-75
2024/01/07 07:10:04;;;;;;;16.00;13.93;;;4.20;68.60;;;;;;5016790;28;20083;-77
2024/01/07 07:12:30;;;;;;;18.67;13.68;;;4.20;68.60;;;;;;4999949;28;20041;-76
2024/01/07 07:14:57;;;;;;;18.48;14.32;;;4.20;68.60;;;;;;5012741;28;20496;-75
2024/01/07 07:17:23;;;;;;;20.02;14.60;;;4.20;68.60;;;;;;5013622;28;20041;-76
2024/01/07 07:19:49;;;;;;;17.02;13.27;;;4.20;68.70;;;;;;5016989;28;20022;-79
2024/01/07 07:22:15;;;;;;;18.40;14.25;;;4.20;68.70;;;;;;5015060;28;20451;-84
2024/01/07 07:24:41;;;;;;;16.88;14.02;;;4.20;68.70;;;;;;5013507;28;20029;-78
2024/01/07 07:27:08;;;;;;;19.60;14.30;;;4.30;68.90;;;;;;5020531;28;20045;-77
2024/01/07 07:29:35;;;;;;;17.52;14.77;;;4.30;68.90;;;;;;5014756;28;20094;-76
2024/01/07 07:32:02;;;;;;;18.70;14.32;;;4.30;68.90;;;;;;5006620;28;20025;-81
2024/01/07 07:34:28;;;;;;;15.68;13.40;;;4.30;68.90;;;;;;5015545;28;20559;-74
2024/01/07 07:36:55;;;;;;;15.18;13.02;;;4.30;68.90;;;;;;5017644;28;20026;-76
2024/01/07 07:39:21;;;;;;;54.90;20.35;;;4.30;69.00;;;;;;5014960;28;20030;-74
2024/01/07 07:41:48;;;;;;;40.30;18.20;;;4.40;69.30;;;;;;5013571;28;20064;-79
2024/01/07 07:44:14;;;;;;;39.85;18.75;;;4.40;69.40;;;;;;5016127;28;20056;-76
2024/01/07 07:46:41;;;;;;;46.25;19.58;;;4.50;69.60;;;;;;5024368;28;20041;-78
2024/01/07 07:49:07;;;;;;;30.35;18.63;;;4.60;70.00;;;;;;5035632;28;20309;-81
2024/01/07 07:51:33;;;;;;;33.15;19.45;;;4.60;69.90;;;;;;5039668;28;20038;-78
2024/01/07 07:53:58;;;;;;;30.55;17.40;;;4.70;70.10;;;;;;5037436;28;20055;-75
2024/01/07 07:56:24;;;;;;;28.25;16.10;;;4.70;70.10;;;;;;5044311;28;20021;-78
2024/01/07 07:58:50;;;;;;;25.80;15.40;;;4.70;70.20;;;;;;5034876;28;20205;-77
2024/01/07 08:01:18;;;;;;;25.25;15.88;;;4.80;70.40;;;;;;5010400;28;20033;-77
2024/01/07 08:03:44;;;;;;;20.70;14.43;;;4.70;70.30;;;;;;5013198;28;20054;-79
2024/01/07 08:06:10;;;;;;;19.70;14.32;;;4.80;70.50;;;;;;5010633;28;20499;-78
2024/01/07 08:08:35;;;;;;;26.50;16.33;;;4.70;70.40;;;;;;4999924;28;20018;-78
2024/01/07 08:11:01;;;;;;;19.88;14.52;;;4.80;70.60;;;;;;5014028;28;20124;-81
2024/01/07 08:13:27;;;;;;;22.33;15.73;;;4.70;70.50;;;;;;5014547;28;20026;-78
2024/01/07 08:15:54;;;;;;;21.23;15.20;;;4.80;70.60;;;;;;5000648;28;20045;-77
2024/01/07 08:18:20;;;;;;;18.20;13.55;;;4.80;70.80;;;;;;5014288;28;20269;-78
2024/01/07 08:20:46;;;;;;;17.55;14.05;;;4.80;70.70;;;;;;5017059;28;20096;-79
2024/01/07 08:23:12;;;;;;;18.05;13.52;;;4.80;70.70;;;;;;5012093;28;20041;-75
2024/01/07 08:25:38;;;;;;;21.65;13.73;;;4.80;70.70;;;;;;5008472;28;20049;-77
2024/01/07 08:28:05;;;;;;;17.80;13.82;;;4.80;70.70;;;;;;5015404;28;20429;-78
2024/01/07 08:30:31;;;;;;;17.70;13.00;;;4.80;70.70;;;;;;5013619;28;20121;-76
2024/01/07 08:32:57;;;;;;;19.13;12.73;;;4.80;70.70;;;;;;5011412;28;20037;-79
2024/01/07 08:35:23;;;;;;;15.73;12.15;;;4.80;70.70;;;;;;5008646;28;20104;-80
2024/01/07 08:37:50;;;;;;;14.65;10.75;;;4.80;70.60;;;;;;5019666;28;20485;-75
2024/01/07 08:40:18;;;;;;;15.85;13.13;;;4.80;70.60;;;;;;5010551;28;20072;-79
2024/01/07 08:42:45;;;;;;;17.60;11.68;;;4.80;70.60;;;;;;5008784;28;20084;-80
2024/01/07 08:45:11;;;;;;;14.13;11.02;;;4.80;70.60;;;;;;5016291;28;20033;-79
2024/01/07 08:47:37;;;;;;;16.38;11.10;;;4.80;70.60;;;;;;5022650;28;20057;-79
2024/01/07 08:50:03;;;;;;;16.77;11.73;;;4.90;70.70;;;;;;5021528;28;20045;-80
2024/01/07 08:52:29;;;;;;;13.45;10.68;;;4.90;70.70;;;;;;5008476;28;20513;-76
2024/01/07 08:54:56;;;;;;;13.50;10.68;;;4.90;70.70;;;;;;5020602;28;20025;-78
2024/01/07 08:57:22;;;;;;;16.25;11.35;;;4.90;70.60;;;;;;5017975;28;20026;-79
2024/01/07 08:59:49;;;;;;;13.90;11.27;;;4.90;70.60;;;;;;5009092;28;20469;-74
2024/01/07 09:02:14;;;;;;;14.88;11.43;;;4.90;70.50;;;;;;5017217;28;20033;-77
2024/01/07 09:04:40;;;;;;;16.05;11.40;;;5.00;70.70;;;;;;5021300;28;20041;-75
2024/01/07 09:07:08;;;;;;;13.73;11.10;;;5.00;70.60;;;;;;5019838;28;20625;-76
2024/01/07 09:09:33;;;;;;;16.58;10.98;;;5.00;70.60;;;;;;5007736;28;20486;-77
2024/01/07 09:12:00;;;;;;;13.25;10.05;;;5.10;70.70;;;;;;5018024;28;20033;-77
2024/01/07 09:14:26;;;;;;;13.45;10.32;;;5.10;70.70;;;;;;5019509;28;20441;-80
2024/01/07 09:16:53;;;;;;;15.77;10.70;;;5.10;70.60;;;;;;5020634;28;20033;-80
2024/01/07 09:19:19;;;;;;;12.88;9.95;;;5.10;70.50;;;;;;5013596;28;20848;-75
2024/01/07 09:21:45;;;;;;;13.45;10.10;;;5.20;70.70;;;;;;5021157;28;20163;-76
2024/01/07 09:24:11;;;;;;;13.45;10.32;;;5.20;70.60;;;;;;5026683;28;20026;-77
2024/01/07 09:26:37;;;;;;;15.63;10.48;;;5.20;70.50;;;;;;5021021;28;20056;-77
2024/01/07 09:29:03;;;;;;;11.57;9.00;;;5.20;70.40;;;;;;5001138;28;20034;-78
2024/01/07 09:31:29;;;;;;;9.30;8.32;;;5.30;70.60;;;;;;5017977;28;20029;-75
2024/01/07 09:33:55;;;;;;;11.45;9.43;;;5.30;70.50;;;;;;5014289;28;20120;-81
2024/01/07 09:36:21;;;;;;;11.57;9.07;;;5.40;70.60;;;;;;5017559;28;20026;-82
2024/01/07 09:38:47;;;;;;;10.82;8.80;;;5.40;70.50;;;;;;5027536;28;20417;-79
2024/01/07 09:41:13;;;;;;;12.55;8.40;;;5.50;70.60;;;;;;5010934;28;20025;-79
2024/01/07 09:43:39;;;;;;;11.73;8.32;;;5.50;70.50;;;;;;5015715;28;20037;-82
2024/01/07 09:46:05;;;;;;;9.10;7.82;;;5.60;70.60;;;;;;5016264;28;20042;-80
2024/01/07 09:48:31;;;;;;;12.93;8.32;;;5.60;70.50;;;;;;5016145;28;20042;-84
2024/01/07 09:50:58;;;;;;;15.20;8.90;;;5.60;70.40;;;;;;5017414;28;20037;-81
2024/01/07 09:53:29;;;;;;;12.38;8.30;;;5.70;70.50;;;;;;5009252;28;20203;-81
2024/01/07 09:56:13;;;;;;;11.18;8.80;;;5.70;70.40;;;;;;5008848;28;20037;-79
2024/01/07 09:58:42;;;;;;;116.28;87.38;;;5.70;70.30;;;;;;5006061;28;20091;-80
2024/01/07 10:01:10;;;;;;;171.52;130.90;;;5.80;70.40;;;;;;5010566;28;20434;-74
2024/01/07 10:03:36;;;;;;;120.90;91.97;;;5.90;70.70;;;;;;5014946;28;20032;-81
2024/01/07 10:06:02;;;;;;;91.80;71.20;;;6.00;70.90;;;;;;5010328;28;20071;-82
2024/01/07 10:08:28;;;;;;;75.88;56.92;;;6.00;70.90;;;;;;5005903;28;20033;-76
2024/01/07 10:10:54;;;;;;;62.90;47.28;;;6.10;71.00;;;;;;5009943;28;20056;-76
2024/01/07 10:13:23;;;;;;;54.83;41.17;;;6.20;71.10;;;;;;5020495;28;20041;-77
2024/01/07 10:15:49;;;;;;;40.78;32.00;;;6.30;71.20;;;;;;5015994;28;20026;-77
2024/01/07 10:18:15;;;;;;;40.22;30.67;;;6.30;71.10;;;;;;5014354;28;20192;-74
2024/01/07 10:20:41;;;;;;;34.67;25.70;;;6.40;71.70;;;;;;5010714;28;20029;-78
2024/01/07 10:23:07;;;;;;;29.08;23.92;;;6.40;71.10;;;;;;5009402;28;20030;-79
2024/01/07 10:25:36;;;;;;;24.02;20.50;;;6.50;71.20;;;;;;5029276;28;20559;-81
2024/01/07 10:28:02;;;;;;;26.00;19.23;;;6.60;71.20;;;;;;5007075;28;20207;-74
2024/01/07 10:30:29;;;;;;;25.30;17.63;;;6.60;71.10;;;;;;5008090;28;20397;-78
2024/01/07 10:32:58;;;;;;;20.40;16.60;;;6.70;71.00;;;;;;5013144;28;20393;-75
2024/01/07 10:35:33;;;;;;;20.08;14.85;;;6.80;71.60;;;;;;5008405;28;20382;-78
2024/01/07 10:38:03;;;;;;;16.75;13.68;;;6.80;70.80;;;;;;5013081;28;20033;-83
2024/01/07 10:40:33;;;;;;;16.77;12.27;;;6.90;70.90;;;;;;4999219;28;20040;-76
2024/01/07 10:42:59;;;;;;;15.88;11.32;;;6.90;70.70;;;;;;5008847;28;20423;-80
2024/01/07 10:45:25;;;;;;;13.55;10.45;;;7.00;70.80;;;;;;5005487;28;20160;-79
2024/01/07 10:47:55;;;;;;;10.27;9.18;;;7.00;70.60;;;;;;5009794;28;20895;-80
2024/01/07 10:50:22;;;;;;;12.57;8.80;;;7.10;70.50;;;;;;5007221;28;20100;-79
2024/01/07 10:52:58;;;;;;;11.43;9.15;;;7.10;70.30;;;;;;5016017;28;20137;-79
2024/01/07 10:55:29;;;;;;;9.57;7.85;;;7.20;70.30;;;;;;5011880;28;20033;-79
2024/01/07 10:57:57;;;;;;;14.98;7.60;;;7.20;70.60;;;;;;5017885;28;20037;-77
2024/01/07 11:00:24;;;;;;;9.25;6.43;;;7.30;70.10;;;;;;5014207;28;20351;-74
2024/01/07 11:03:13;;;;;;;7.32;5.85;;;7.30;70.00;;;;;;5004896;28;20411;-79
2024/01/07 11:05:57;;;;;;;7.82;5.95;;;7.40;69.80;;;;;;5007135;28;20048;-80
2024/01/07 11:08:34;;;;;;;7.05;6.00;;;7.50;69.70;;;;;;5010937;28;20293;-75
2024/01/07 11:11:14;;;;;;;6.72;4.70;;;7.50;69.50;;;;;;5000399;28;20117;-77
2024/01/07 11:13:40;;;;;;;16.25;12.15;;;7.60;69.40;;;;;;5007905;28;20033;-76
2024/01/07 11:16:10;;;;;;;17.13;12.70;;;7.60;69.20;;;;;;4992480;28;20557;-82
2024/01/07 11:18:51;;;;;;;15.68;11.02;;;7.70;69.30;;;;;;5010989;28;20029;-76
2024/01/07 11:21:21;;;;;;;12.93;9.93;;;7.70;69.10;;;;;;5016672;28;20068;-77
2024/01/07 11:23:48;;;;;;;11.40;7.43;;;7.80;69.10;;;;;;5003640;28;20033;-79
2024/01/07 11:26:14;;;;;;;10.40;7.55;;;7.80;68.90;;;;;;4998674;28;20111;-78
2024/01/07 11:28:54;;;;;;;9.20;7.30;;;7.80;68.70;;;;;;5007901;28;20501;-80
2024/01/07 11:31:41;;;;;;;7.53;6.43;;;7.80;68.50;;;;;;5013236;28;20262;-81
2024/01/07 11:34:10;;;;;;;7.40;5.18;;;7.80;68.40;;;;;;4999416;28;20039;-84
2024/01/07 11:36:36;;;;;;;6.32;5.18;;;7.80;68.30;;;;;;5014337;28;20501;-76
2024/01/07 11:39:03;;;;;;;5.03;4.13;;;7.80;68.20;;;;;;5000417;28;20040;-76
2024/01/07 11:41:34;;;;;;;4.82;3.78;;;7.80;68.00;;;;;;4999840;28;20521;-73
2024/01/07 11:44:02;;;;;;;6.95;4.10;;;7.90;68.00;;;;;;5027691;28;20561;-76
2024/01/07 11:46:33;;;;;;;7.13;4.25;;;7.90;67.80;;;;;;5011823;28;20049;-74
2024/01/07 11:48:59;;;;;;;6.55;3.53;;;8.00;67.80;;;;;;5014542;28;20030;-78
2024/01/07 11:51:27;;;;;;;5.63;3.70;;;8.00;67.50;;;;;;5014644;28;20511;-73
2024/01/07 11:53:53;;;;;;;3.95;3.08;;;8.10;67.50;;;;;;5011011;28;20040;-80
2024/01/07 11:56:19;;;;;;;4.35;2.90;;;8.10;67.20;;;;;;5014371;28;20033;-75
2024/01/07 11:58:46;;;;;;;4.00;2.92;;;8.10;67.00;;;;;;5005025;28;20032;-74
2024/01/07 12:01:14;;;;;;;5.35;3.10;;;8.20;67.00;;;;;;5010918;28;20041;-76
2024/01/07 12:03:43;;;;;;;5.93;3.00;;;8.10;66.70;;;;;;5008050;28;20030;-74
2024/01/07 12:06:13;;;;;;;4.85;3.40;;;8.20;66.70;;;;;;5017539;28;20588;-77
2024/01/07 12:08:41;;;;;;;5.72;3.63;;;8.10;66.40;;;;;;5011775;28;20235;-73
2024/01/07 12:11:08;;;;;;;6.35;3.25;;;8.10;66.30;;;;;;5001398;28;20603;-74
2024/01/07 12:13:34;;;;;;;3.47;2.80;;;8.10;66.30;;;;;;5015446;28;20025;-83
2024/01/07 12:16:01;;;;;;;5.05;2.67;;;8.10;66.70;;;;;;4996746;28;20570;-79
2024/01/07 12:18:27;;;;;;;3.97;2.75;;;8.10;66.10;;;;;;5015505;28;20409;-77
2024/01/07 12:20:57;;;;;;;5.35;2.55;;;8.10;66.00;;;;;;5011939;28;20030;-75
2024/01/07 12:23:26;;;;;;;3.97;2.63;;;8.00;65.70;;;;;;5015526;28;20115;-85
2024/01/07 12:25:53;;;;;;;3.63;2.70;;;8.00;65.70;;;;;;5013123;28;20056;-75
2024/01/07 12:28:19;;;;;;;7.10;2.72;;;8.00;65.70;;;;;;5016177;28;20033;-75
2024/01/07 12:30:49;;;;;;;7.05;3.65;;;8.00;65.60;;;;;;5016889;28;20064;-75
2024/01/07 12:33:21;;;;;;;4.10;2.65;;;7.90;65.40;;;;;;5016277;28;20030;-74
2024/01/07 12:35:48;;;;;;;3.80;2.70;;;7.90;65.30;;;;;;5019128;28;20041;-81
2024/01/07 12:38:14;;;;;;;4.10;2.53;;;7.90;65.30;;;;;;5019655;28;20060;-74
2024/01/07 12:40:40;;;;;;;9.85;4.75;;;7.90;65.20;;;;;;5010714;28;20048;-74
2024/01/07 12:43:06;;;;;;;23.10;13.10;;;8.00;65.20;;;;;;5018375;28;20541;-75